Alpha, Michigan
Current Conditions -  °F | °C
As of 6:54 AM on Saturday 25 Oct 2014 (Local Time) from KIMT Reporting Station
Clear Clear  
Wind Chill: 51°   Ceiling: Unl
Heat Index: 51°   Visibility: 10mi
Dew Point: 40°   Wind: 12mph
Humidity: 66%   Direction: 280°W
Pressure: 29.74"   Gusts: NA
Location:  46.04°N, 88.38°W
Report Text: KIMT 251154Z AUTO 28010KT 10SM CLR 11/04 A2974 RMK AO2 SLP074 T01060044 10128 20106 50004
Loading
Personal Weather Stations






























Interactive Weather Map
Tropical Storm Tracking
New forecast layout! Learn more

10-Day Weather Forecast

Advertisements
Track Severe Weather on mobile